Loretto, Virginia
Current Conditions -  °F | °C
As of 9:35 AM on Thursday 18 Dec 2014 (Local Time) from KXSA Reporting Station
Clear Clear  
Wind Chill: 34°   Ceiling: Unl
Heat Index: 38°   Visibility: 10mi
Dew Point: 21°   Wind: 6mph
Humidity: 49%   Direction: 330°NNW
Pressure: 30.18"   Gusts: NA
Location:  38.08°N, 77.05°W
Report Text: KXSA 181435Z AUTO 33005KT 10SM CLR 04/M06 A3018 RMK AO2 T00351063
Loading
Personal Weather Stations






























Interactive Weather Map New forecast layout! Learn more

10-Day Weather Forecast

Advertisements
Track Severe Weather on mobile